Weather at Bern Airport

Public forecast

Using degrees Celsius for public forecast. Weather courtesy of forecast.io.

Current aviation weather report (METAR) for Bern Airport

2024/05/28 21:50 (retrieved 18 minutes ago)

LSZB 282150Z AUTO 10003KT 080V150 CAVOK 10/09 Q1020

Closest aviation forecast (TAF) to Bern Airport

Closest forecast is Payerne Air Base, 24.3 nm (45.0 km) W.

2024/05/28 17:00 (retrieved 5 hours ago)

TAF LSMP 281625Z 2817/2923 VRB02KT CAVOK BECMG 2909/2912 22010KT 9999 BKN070 TEMPO 2918/2923 RA